»·PEaware :: QXE2296 KEUG-KSEA

QXE2296 :: KEUG-KSEA

FLIGHT INFORMATION

Flight Status: Arrived
Operator:
Horizon Air
More flights by this operator :: More flights under this callsign
Pilot: Henderson P. (1210)
Aircraft: DEHAVILLAND DASH 8 400
(DH8D)
More flights by this aircraft type
Origin: KEUG Mahlon Sweet
United States
Destination: KSEA Seattle-Tacoma Intl
United States
More flights between these airports :: More routes between these airports
Route: CVO UBG KRIEG HAWKZ7
File this flight plan on PilotEdge
Remarks:
Altitude:
(Current/Filed)
20,000ft
Speed:
(Current/Filed)
314kts
Departed: 24-Oct-18 07:20 AM
Arrived: 24-Oct-18 08:14 AM
Distance/Time
Traveled:
203nm/0:54
Distance/Time
To Go:
Arrived

Flight Plot

Page will automatically refresh every two minutes.

Flight plan parsing failed; only flown route is shown


Map Options




Map Legend


Flown Route
Filed Route
Departure Airport
Arrival Airport
Navaid (VOR, NDB)
Fix

Horizontal Profiles

Position Reports

Time Latitude Longitude Heading Altitude Ground
Speed
24-Oct-18 06:33 44.118734 -123.213489 36 376ft 0kts
24-Oct-18 06:34 44.118734 -123.213489 36 376ft 0kts
24-Oct-18 06:35 44.118734 -123.213489 36 376ft 0kts
24-Oct-18 06:36 44.118734 -123.213489 36 376ft 0kts
24-Oct-18 06:37 44.118734 -123.213489 36 376ft 0kts
24-Oct-18 06:38 44.118734 -123.213489 36 376ft 0kts
24-Oct-18 06:39 44.118734 -123.213489 36 376ft 0kts
24-Oct-18 06:40 44.118734 -123.213489 36 376ft 0kts
24-Oct-18 06:41 44.118734 -123.213489 36 376ft 0kts
24-Oct-18 06:42 44.118734 -123.213489 36 376ft 0kts
24-Oct-18 06:43 44.118734 -123.213489 36 376ft 0kts
24-Oct-18 06:44 44.118734 -123.213489 36 376ft 0kts
24-Oct-18 06:45 44.118734 -123.213489 36 376ft 0kts
24-Oct-18 06:46 44.118734 -123.213489 36 376ft 0kts
24-Oct-18 06:47 44.118734 -123.213489 36 376ft 0kts
24-Oct-18 06:48 44.118429 -123.213798 36 376ft 2kts
24-Oct-18 06:49 44.118006 -123.214225 36 376ft 0kts
24-Oct-18 06:50 44.118006 -123.214225 36 376ft 0kts
24-Oct-18 06:51 44.118013 -123.214218 36 376ft 1kts
24-Oct-18 06:52 44.118848 -123.215512 321 376ft 12kts
24-Oct-18 06:53 44.122247 -123.217170 359 377ft 19kts
24-Oct-18 06:54 44.127592 -123.217228 359 377ft 19kts
24-Oct-18 06:55 44.133607 -123.216871 19 377ft 16kts
24-Oct-18 06:56 44.135397 -123.216894 274 376ft 0kts
24-Oct-18 06:57 44.135397 -123.216894 274 376ft 0kts
24-Oct-18 06:58 44.135397 -123.216894 274 376ft 0kts
24-Oct-18 06:59 44.135397 -123.216894 274 376ft 0kts
24-Oct-18 07:00 44.135397 -123.216894 274 376ft 0kts
24-Oct-18 07:01 44.135397 -123.216894 274 376ft 0kts
24-Oct-18 07:02 44.135397 -123.216894 274 376ft 0kts
24-Oct-18 07:03 44.135397 -123.216894 274 376ft 0kts
24-Oct-18 07:04 44.135397 -123.216894 274 376ft 0kts
24-Oct-18 07:05 44.135397 -123.216894 274 376ft 0kts
24-Oct-18 07:06 44.135397 -123.216894 274 376ft 0kts
24-Oct-18 07:07 44.135397 -123.216894 274 376ft 0kts
24-Oct-18 07:08 44.135397 -123.216894 274 376ft 0kts
24-Oct-18 07:09 44.135397 -123.216894 274 376ft 0kts
24-Oct-18 07:10 44.135397 -123.216894 274 376ft 0kts
24-Oct-18 07:11 44.135397 -123.216894 274 376ft 0kts
24-Oct-18 07:12 44.135397 -123.216894 274 376ft 0kts
24-Oct-18 07:13 44.135397 -123.216894 274 376ft 0kts
24-Oct-18 07:14 44.135397 -123.216894 274 376ft 0kts
24-Oct-18 07:15 44.135397 -123.216894 274 376ft 0kts
24-Oct-18 07:16 44.135397 -123.216894 274 376ft 0kts
24-Oct-18 07:17 44.135397 -123.216894 274 376ft 0kts
24-Oct-18 07:18 44.135397 -123.216894 274 376ft 0kts
24-Oct-18 07:19 44.135397 -123.216894 274 376ft 0kts
24-Oct-18 07:20 44.135413 -123.217963 268 377ft 6kts
24-Oct-18 07:21 44.135003 -123.219145 179 376ft 0kts
24-Oct-18 07:22 44.110681 -123.218458 178 1054ft 149kts
24-Oct-18 07:23 44.068755 -123.218050 179 3320ft 181kts
24-Oct-18 07:24 44.012748 -123.221794 205 5360ft 229kts
24-Oct-18 07:25 44.010364 -123.296255 325 7926ft 246kts
24-Oct-18 07:26 44.078345 -123.308095 355 10167ft 259kts
24-Oct-18 07:27 44.150647 -123.306852 358 11836ft 267kts
24-Oct-18 07:28 44.225735 -123.303515 357 13121ft 273kts
24-Oct-18 07:29 44.301559 -123.300531 357 14279ft 277kts
24-Oct-18 07:30 44.377987 -123.297682 356 15314ft 281kts
24-Oct-18 07:31 44.455344 -123.294935 356 16302ft 282kts
24-Oct-18 07:32 44.533031 -123.282602 9 17294ft 288kts
24-Oct-18 07:33 44.609134 -123.253448 9 18284ft 286kts
24-Oct-18 07:34 44.684461 -123.225772 8 19264ft 282kts
24-Oct-18 07:35 44.758911 -123.198562 8 20049ft 285kts
24-Oct-18 07:36 44.837616 -123.169979 8 20124ft 309kts
24-Oct-18 07:37 44.921612 -123.138948 9 20122ft 329kts
24-Oct-18 07:38 45.010246 -123.106148 9 20121ft 340kts
24-Oct-18 07:39 45.101156 -123.072370 9 20119ft 346kts
24-Oct-18 07:40 45.192242 -123.038433 9 20120ft 349kts
24-Oct-18 07:41 45.284307 -123.003983 9 20121ft 351kts
24-Oct-18 07:42 45.376825 -122.970417 6 20122ft 350kts
24-Oct-18 07:43 45.470070 -122.947499 5 20121ft 350kts
24-Oct-18 07:44 45.564437 -122.923022 5 20119ft 351kts
24-Oct-18 07:45 45.659276 -122.897888 5 20119ft 351kts
24-Oct-18 07:46 45.754141 -122.872970 5 20119ft 351kts
24-Oct-18 07:47 45.849008 -122.847945 5 20119ft 351kts
24-Oct-18 07:48 45.942922 -122.823035 5 20121ft 351kts
24-Oct-18 07:49 46.037486 -122.797961 5 20125ft 351kts
24-Oct-18 07:50 46.133324 -122.772383 5 20127ft 351kts
24-Oct-18 07:51 46.229616 -122.746522 5 20128ft 351kts
24-Oct-18 07:52 46.324976 -122.722047 0 20128ft 348kts
24-Oct-18 07:53 46.417803 -122.725464 352 20135ft 344kts
24-Oct-18 07:54 46.512692 -122.729218 353 20135ft 345kts
24-Oct-18 07:55 46.610401 -122.732754 353 18926ft 358kts
24-Oct-18 07:56 46.707556 -122.736281 354 17056ft 344kts
24-Oct-18 07:57 46.796206 -122.722435 25 15362ft 339kts
24-Oct-18 07:58 46.871626 -122.637606 36 13577ft 351kts
24-Oct-18 07:59 46.946153 -122.558760 20 12349ft 308kts
24-Oct-18 08:00 47.024720 -122.523867 13 12157ft 300kts
24-Oct-18 08:01 47.104987 -122.494289 4 11543ft 298kts
24-Oct-18 08:02 47.174752 -122.483139 4 10274ft 288kts
24-Oct-18 08:03 47.251677 -122.470877 5 9228ft 270kts
24-Oct-18 08:04 47.316167 -122.461085 5 8448ft 258kts
24-Oct-18 08:05 47.388032 -122.454379 359 7379ft 256kts
24-Oct-18 08:06 47.455523 -122.455290 359 6535ft 231kts
24-Oct-18 08:07 47.519320 -122.455764 355 6068ft 238kts
24-Oct-18 08:08 47.581988 -122.468774 17 4910ft 228kts
24-Oct-18 08:09 47.636751 -122.430839 26 3717ft 215kts
24-Oct-18 08:10 47.675310 -122.383202 86 3045ft 205kts
24-Oct-18 08:11 47.645413 -122.325005 163 2997ft 194kts
24-Oct-18 08:12 47.591927 -122.311399 175 2910ft 191kts
24-Oct-18 08:13 47.543642 -122.309256 180 1998ft 158kts
24-Oct-18 08:14 47.506378 -122.310354 181 1253ft 126kts
24-Oct-18 08:15 47.471601 -122.311051 179 612ft 124kts
24-Oct-18 08:16 47.448540 -122.310676 166 441ft 22kts
24-Oct-18 08:17 47.445892 -122.307258 89 441ft 13kts
24-Oct-18 08:18 47.444210 -122.306336 180 441ft 12kts
24-Oct-18 08:19 47.443429 -122.304372 3 441ft 2kts
24-Oct-18 08:20 47.443676 -122.304368 0 440ft 0kts
24-Oct-18 08:21 47.443676 -122.304368 0 440ft 0kts
24-Oct-18 08:22 47.443676 -122.304368 0 440ft 0kts
24-Oct-18 08:23 47.443676 -122.304368 0 440ft 0kts
24-Oct-18 08:24 47.443676 -122.304368 0 440ft 0kts
24-Oct-18 08:25 47.443676 -122.304368 0 440ft 0kts
24-Oct-18 08:26 47.443676 -122.304368 0 440ft 0kts
24-Oct-18 08:27 47.443676 -122.304368 0 440ft 0kts
24-Oct-18 08:28 47.443676 -122.304368 0 440ft 0kts

Navigation Log

Ident Type
Flight plan parsing failed, navigation log unavailable